sensor_id;sensor_type;location;lat;lon;timestamp;P1;durP1;ratioP1;P2;durP2;ratioP2
8819;SDS011;4446;50.876;4.736;2024-01-15T00:01:10;18.88;;;6.13;;
8819;SDS011;4446;50.876;4.736;2024-01-15T00:03:37;13.98;;;5.95;;
8819;SDS011;4446;50.876;4.736;2024-01-15T00:06:05;19.73;;;6.13;;
8819;SDS011;4446;50.876;4.736;2024-01-15T00:08:32;13.88;;;5.75;;
8819;SDS011;4446;50.876;4.736;2024-01-15T00:10:59;11.15;;;5.70;;
8819;SDS011;4446;50.876;4.736;2024-01-15T00:13:26;10.85;;;6.30;;
8819;SDS011;4446;50.876;4.736;2024-01-15T00:15:53;17.13;;;6.30;;
8819;SDS011;4446;50.876;4.736;2024-01-15T00:18:22;15.18;;;6.15;;
8819;SDS011;4446;50.876;4.736;2024-01-15T00:20:49;14.65;;;5.97;;
8819;SDS011;4446;50.876;4.736;2024-01-15T00:23:16;12.70;;;5.85;;
8819;SDS011;4446;50.876;4.736;2024-01-15T00:25:43;10.60;;;5.20;;
8819;SDS011;4446;50.876;4.736;2024-01-15T00:28:10;14.30;;;4.38;;
8819;SDS011;4446;50.876;4.736;2024-01-15T00:30:37;9.07;;;4.22;;
8819;SDS011;4446;50.876;4.736;2024-01-15T00:33:04;10.88;;;5.65;;
8819;SDS011;4446;50.876;4.736;2024-01-15T00:35:32;12.68;;;5.35;;
8819;SDS011;4446;50.876;4.736;2024-01-15T00:37:59;12.68;;;5.05;;
8819;SDS011;4446;50.876;4.736;2024-01-15T00:40:26;12.73;;;5.18;;
8819;SDS011;4446;50.876;4.736;2024-01-15T00:42:53;11.55;;;4.35;;
8819;SDS011;4446;50.876;4.736;2024-01-15T00:45:20;10.20;;;5.68;;
8819;SDS011;4446;50.876;4.736;2024-01-15T00:47:47;9.85;;;4.93;;
8819;SDS011;4446;50.876;4.736;2024-01-15T00:50:15;13.80;;;4.80;;
8819;SDS011;4446;50.876;4.736;2024-01-15T00:52:43;11.07;;;4.95;;
8819;SDS011;4446;50.876;4.736;2024-01-15T00:55:10;11.45;;;5.32;;
8819;SDS011;4446;50.876;4.736;2024-01-15T00:57:37;11.70;;;5.63;;
8819;SDS011;4446;50.876;4.736;2024-01-15T01:00:06;10.45;;;5.13;;
8819;SDS011;4446;50.876;4.736;2024-01-15T01:02:34;7.82;;;4.65;;
8819;SDS011;4446;50.876;4.736;2024-01-15T01:05:01;9.73;;;4.25;;
8819;SDS011;4446;50.876;4.736;2024-01-15T01:07:28;10.02;;;4.38;;
8819;SDS011;4446;50.876;4.736;2024-01-15T01:09:56;10.20;;;4.93;;
8819;SDS011;4446;50.876;4.736;2024-01-15T01:12:23;8.68;;;4.38;;
8819;SDS011;4446;50.876;4.736;2024-01-15T01:14:50;10.10;;;3.97;;
8819;SDS011;4446;50.876;4.736;2024-01-15T01:17:17;9.88;;;4.40;;
8819;SDS011;4446;50.876;4.736;2024-01-15T01:19:44;9.00;;;4.10;;
8819;SDS011;4446;50.876;4.736;2024-01-15T01:22:11;10.63;;;5.22;;
8819;SDS011;4446;50.876;4.736;2024-01-15T01:24:38;12.25;;;4.90;;
8819;SDS011;4446;50.876;4.736;2024-01-15T01:27:07;10.70;;;4.88;;
8819;SDS011;4446;50.876;4.736;2024-01-15T01:29:34;6.82;;;3.88;;
8819;SDS011;4446;50.876;4.736;2024-01-15T01:32:02;7.60;;;3.70;;
8819;SDS011;4446;50.876;4.736;2024-01-15T01:34:29;8.25;;;4.47;;
8819;SDS011;4446;50.876;4.736;2024-01-15T01:36:56;11.93;;;4.82;;
8819;SDS011;4446;50.876;4.736;2024-01-15T01:39:25;9.23;;;4.53;;
8819;SDS011;4446;50.876;4.736;2024-01-15T01:41:52;8.52;;;3.97;;
8819;SDS011;4446;50.876;4.736;2024-01-15T01:44:20;8.68;;;4.07;;
8819;SDS011;4446;50.876;4.736;2024-01-15T01:46:47;9.15;;;4.20;;
8819;SDS011;4446;50.876;4.736;2024-01-15T01:49:15;7.55;;;3.67;;
8819;SDS011;4446;50.876;4.736;2024-01-15T01:51:42;5.70;;;3.78;;
8819;SDS011;4446;50.876;4.736;2024-01-15T01:54:10;5.63;;;3.47;;
8819;SDS011;4446;50.876;4.736;2024-01-15T01:56:39;8.82;;;3.85;;
8819;SDS011;4446;50.876;4.736;2024-01-15T01:59:06;7.18;;;4.10;;
8819;SDS011;4446;50.876;4.736;2024-01-15T02:01:37;9.77;;;3.83;;
8819;SDS011;4446;50.876;4.736;2024-01-15T02:04:05;5.32;;;3.85;;
8819;SDS011;4446;50.876;4.736;2024-01-15T02:06:33;6.28;;;3.35;;
8819;SDS011;4446;50.876;4.736;2024-01-15T02:09:00;5.90;;;3.17;;
8819;SDS011;4446;50.876;4.736;2024-01-15T02:11:27;6.47;;;3.60;;
8819;SDS011;4446;50.876;4.736;2024-01-15T02:13:54;9.18;;;3.83;;
8819;SDS011;4446;50.876;4.736;2024-01-15T02:16:21;7.45;;;3.40;;
8819;SDS011;4446;50.876;4.736;2024-01-15T02:18:49;5.88;;;3.35;;
8819;SDS011;4446;50.876;4.736;2024-01-15T02:21:16;6.85;;;3.55;;
8819;SDS011;4446;50.876;4.736;2024-01-15T02:23:45;4.65;;;3.20;;
8819;SDS011;4446;50.876;4.736;2024-01-15T02:26:12;5.93;;;3.10;;
8819;SDS011;4446;50.876;4.736;2024-01-15T02:28:40;6.43;;;3.83;;
8819;SDS011;4446;50.876;4.736;2024-01-15T02:31:09;4.75;;;2.80;;
8819;SDS011;4446;50.876;4.736;2024-01-15T02:33:36;5.60;;;3.15;;
8819;SDS011;4446;50.876;4.736;2024-01-15T02:36:03;6.00;;;3.80;;
8819;SDS011;4446;50.876;4.736;2024-01-15T02:38:31;5.68;;;3.33;;
8819;SDS011;4446;50.876;4.736;2024-01-15T02:40:59;8.00;;;3.90;;
8819;SDS011;4446;50.876;4.736;2024-01-15T02:43:26;5.18;;;3.38;;
8819;SDS011;4446;50.876;4.736;2024-01-15T02:45:54;4.70;;;3.45;;
8819;SDS011;4446;50.876;4.736;2024-01-15T02:48:21;5.43;;;2.95;;
8819;SDS011;4446;50.876;4.736;2024-01-15T02:50:48;5.95;;;3.55;;
8819;SDS011;4446;50.876;4.736;2024-01-15T02:53:15;7.18;;;3.28;;
8819;SDS011;4446;50.876;4.736;2024-01-15T02:55:42;3.25;;;2.70;;
8819;SDS011;4446;50.876;4.736;2024-01-15T02:58:10;6.05;;;3.20;;
8819;SDS011;4446;50.876;4.736;2024-01-15T03:00:37;5.07;;;3.22;;
8819;SDS011;4446;50.876;4.736;2024-01-15T03:03:04;7.40;;;3.08;;
8819;SDS011;4446;50.876;4.736;2024-01-15T03:05:31;6.75;;;3.25;;
8819;SDS011;4446;50.876;4.736;2024-01-15T03:07:58;4.35;;;2.97;;
8819;SDS011;4446;50.876;4.736;2024-01-15T03:10:25;6.45;;;3.35;;
8819;SDS011;4446;50.876;4.736;2024-01-15T03:12:52;4.90;;;2.95;;
8819;SDS011;4446;50.876;4.736;2024-01-15T03:15:21;5.25;;;2.72;;
8819;SDS011;4446;50.876;4.736;2024-01-15T03:17:48;4.75;;;2.90;;
8819;SDS011;4446;50.876;4.736;2024-01-15T03:20:15;5.00;;;2.60;;
8819;SDS011;4446;50.876;4.736;2024-01-15T03:22:42;5.95;;;3.05;;
8819;SDS011;4446;50.876;4.736;2024-01-15T03:25:09;6.57;;;3.25;;
8819;SDS011;4446;50.876;4.736;2024-01-15T03:27:36;5.18;;;3.05;;
8819;SDS011;4446;50.876;4.736;2024-01-15T03:30:03;4.97;;;2.70;;
8819;SDS011;4446;50.876;4.736;2024-01-15T03:32:32;4.75;;;2.90;;
8819;SDS011;4446;50.876;4.736;2024-01-15T03:34:59;4.75;;;2.58;;
8819;SDS011;4446;50.876;4.736;2024-01-15T03:37:26;5.32;;;2.60;;
8819;SDS011;4446;50.876;4.736;2024-01-15T03:39:53;10.50;;;3.88;;
8819;SDS011;4446;50.876;4.736;2024-01-15T03:42:20;4.50;;;3.00;;
8819;SDS011;4446;50.876;4.736;2024-01-15T03:44:47;4.90;;;3.03;;
8819;SDS011;4446;50.876;4.736;2024-01-15T03:47:14;4.22;;;2.55;;
8819;SDS011;4446;50.876;4.736;2024-01-15T03:49:42;5.22;;;2.83;;
8819;SDS011;4446;50.876;4.736;2024-01-15T03:52:09;6.85;;;3.42;;
8819;SDS011;4446;50.876;4.736;2024-01-15T03:54:37;4.25;;;2.97;;
8819;SDS011;4446;50.876;4.736;2024-01-15T03:57:04;4.13;;;2.95;;
8819;SDS011;4446;50.876;4.736;2024-01-15T03:59:31;4.85;;;3.60;;
8819;SDS011;4446;50.876;4.736;2024-01-15T04:01:58;11.23;;;4.53;;
8819;SDS011;4446;50.876;4.736;2024-01-15T04:04:25;11.25;;;4.47;;
8819;SDS011;4446;50.876;4.736;2024-01-15T04:06:53;5.65;;;3.78;;
8819;SDS011;4446;50.876;4.736;2024-01-15T04:09:20;7.45;;;3.95;;
8819;SDS011;4446;50.876;4.736;2024-01-15T04:11:47;6.75;;;3.63;;
8819;SDS011;4446;50.876;4.736;2024-01-15T04:14:15;8.75;;;4.03;;
8819;SDS011;4446;50.876;4.736;2024-01-15T04:16:41;8.13;;;4.15;;
8819;SDS011;4446;50.876;4.736;2024-01-15T04:19:08;9.00;;;4.38;;
8819;SDS011;4446;50.876;4.736;2024-01-15T04:21:35;7.85;;;4.60;;
8819;SDS011;4446;50.876;4.736;2024-01-15T04:24:05;6.20;;;3.95;;
8819;SDS011;4446;50.876;4.736;2024-01-15T04:26:32;8.73;;;4.75;;
8819;SDS011;4446;50.876;4.736;2024-01-15T04:28:59;6.60;;;4.13;;
8819;SDS011;4446;50.876;4.736;2024-01-15T04:31:26;6.70;;;4.43;;
8819;SDS011;4446;50.876;4.736;2024-01-15T04:33:53;10.57;;;5.45;;
8819;SDS011;4446;50.876;4.736;2024-01-15T04:36:20;13.90;;;5.13;;
8819;SDS011;4446;50.876;4.736;2024-01-15T04:38:47;8.88;;;5.00;;
8819;SDS011;4446;50.876;4.736;2024-01-15T04:41:15;10.00;;;5.13;;
8819;SDS011;4446;50.876;4.736;2024-01-15T04:43:43;9.32;;;4.57;;
8819;SDS011;4446;50.876;4.736;2024-01-15T04:46:10;8.60;;;5.30;;
8819;SDS011;4446;50.876;4.736;2024-01-15T04:48:37;12.25;;;6.00;;
8819;SDS011;4446;50.876;4.736;2024-01-15T04:51:04;10.85;;;5.18;;
8819;SDS011;4446;50.876;4.736;2024-01-15T04:53:32;9.48;;;5.45;;
8819;SDS011;4446;50.876;4.736;2024-01-15T04:55:59;9.63;;;5.05;;
8819;SDS011;4446;50.876;4.736;2024-01-15T04:58:27;12.48;;;5.20;;
8819;SDS011;4446;50.876;4.736;2024-01-15T05:00:54;10.65;;;5.60;;
8819;SDS011;4446;50.876;4.736;2024-01-15T05:03:21;11.15;;;5.25;;
8819;SDS011;4446;50.876;4.736;2024-01-15T05:05:48;12.32;;;5.40;;
8819;SDS011;4446;50.876;4.736;2024-01-15T05:08:15;12.55;;;5.53;;
8819;SDS011;4446;50.876;4.736;2024-01-15T05:10:42;10.40;;;5.20;;
8819;SDS011;4446;50.876;4.736;2024-01-15T05:13:10;10.55;;;5.32;;
8819;SDS011;4446;50.876;4.736;2024-01-15T05:15:38;10.43;;;4.65;;
8819;SDS011;4446;50.876;4.736;2024-01-15T05:18:06;9.90;;;5.55;;
8819;SDS011;4446;50.876;4.736;2024-01-15T05:20:33;13.55;;;5.65;;
8819;SDS011;4446;50.876;4.736;2024-01-15T05:23:00;9.13;;;4.85;;
8819;SDS011;4446;50.876;4.736;2024-01-15T05:25:27;9.30;;;4.53;;
8819;SDS011;4446;50.876;4.736;2024-01-15T05:27:54;9.02;;;5.10;;
8819;SDS011;4446;50.876;4.736;2024-01-15T05:30:21;8.50;;;4.53;;
8819;SDS011;4446;50.876;4.736;2024-01-15T05:32:49;10.05;;;4.38;;
8819;SDS011;4446;50.876;4.736;2024-01-15T05:35:16;8.02;;;3.90;;
8819;SDS011;4446;50.876;4.736;2024-01-15T05:37:44;12.68;;;4.65;;
8819;SDS011;4446;50.876;4.736;2024-01-15T05:40:11;10.05;;;4.63;;
8819;SDS011;4446;50.876;4.736;2024-01-15T05:42:39;7.55;;;3.92;;
8819;SDS011;4446;50.876;4.736;2024-01-15T05:45:06;9.75;;;4.60;;
8819;SDS011;4446;50.876;4.736;2024-01-15T05:47:34;6.03;;;3.75;;
8819;SDS011;4446;50.876;4.736;2024-01-15T05:50:02;8.60;;;4.35;;
8819;SDS011;4446;50.876;4.736;2024-01-15T05:52:30;9.15;;;4.40;;
8819;SDS011;4446;50.876;4.736;2024-01-15T05:54:57;5.75;;;3.75;;
8819;SDS011;4446;50.876;4.736;2024-01-15T05:57:24;5.53;;;3.42;;
8819;SDS011;4446;50.876;4.736;2024-01-15T05:59:51;4.65;;;2.80;;
8819;SDS011;4446;50.876;4.736;2024-01-15T06:02:18;6.45;;;3.88;;
8819;SDS011;4446;50.876;4.736;2024-01-15T06:04:45;6.28;;;3.00;;
8819;SDS011;4446;50.876;4.736;2024-01-15T06:07:13;5.97;;;3.60;;
8819;SDS011;4446;50.876;4.736;2024-01-15T06:09:40;6.53;;;3.47;;
8819;SDS011;4446;50.876;4.736;2024-01-15T06:12:08;4.05;;;2.97;;
8819;SDS011;4446;50.876;4.736;2024-01-15T06:14:35;3.38;;;2.25;;
8819;SDS011;4446;50.876;4.736;2024-01-15T06:17:02;4.10;;;2.40;;
8819;SDS011;4446;50.876;4.736;2024-01-15T06:19:29;3.72;;;2.92;;
8819;SDS011;4446;50.876;4.736;2024-01-15T06:21:56;4.45;;;2.83;;
8819;SDS011;4446;50.876;4.736;2024-01-15T06:24:24;6.80;;;2.78;;
8819;SDS011;4446;50.876;4.736;2024-01-15T06:26:51;3.40;;;2.20;;
8819;SDS011;4446;50.876;4.736;2024-01-15T06:29:18;3.33;;;2.22;;
8819;SDS011;4446;50.876;4.736;2024-01-15T06:31:45;3.92;;;2.38;;
8819;SDS011;4446;50.876;4.736;2024-01-15T06:34:12;3.83;;;2.30;;
8819;SDS011;4446;50.876;4.736;2024-01-15T06:36:39;4.22;;;2.28;;
8819;SDS011;4446;50.876;4.736;2024-01-15T06:39:06;4.68;;;2.25;;
8819;SDS011;4446;50.876;4.736;2024-01-15T06:41:35;4.00;;;1.98;;
8819;SDS011;4446;50.876;4.736;2024-01-15T06:44:06;3.72;;;1.83;;
8819;SDS011;4446;50.876;4.736;2024-01-15T06:46:34;3.05;;;1.90;;
8819;SDS011;4446;50.876;4.736;2024-01-15T06:49:01;2.53;;;1.90;;
8819;SDS011;4446;50.876;4.736;2024-01-15T06:51:29;2.97;;;1.88;;
8819;SDS011;4446;50.876;4.736;2024-01-15T06:53:56;3.70;;;2.45;;
8819;SDS011;4446;50.876;4.736;2024-01-15T06:56:23;3.38;;;2.03;;
8819;SDS011;4446;50.876;4.736;2024-01-15T06:58:51;2.92;;;1.83;;
8819;SDS011;4446;50.876;4.736;2024-01-15T07:01:18;3.58;;;2.08;;
8819;SDS011;4446;50.876;4.736;2024-01-15T07:03:45;3.53;;;2.03;;
8819;SDS011;4446;50.876;4.736;2024-01-15T07:06:12;2.63;;;1.63;;
8819;SDS011;4446;50.876;4.736;2024-01-15T07:08:39;2.47;;;1.50;;
8819;SDS011;4446;50.876;4.736;2024-01-15T07:11:07;5.93;;;2.30;;
8819;SDS011;4446;50.876;4.736;2024-01-15T07:13:35;3.08;;;1.80;;
8819;SDS011;4446;50.876;4.736;2024-01-15T07:16:05;1.77;;;1.45;;
8819;SDS011;4446;50.876;4.736;2024-01-15T07:18:32;4.32;;;1.60;;
8819;SDS011;4446;50.876;4.736;2024-01-15T07:20:59;2.80;;;1.70;;
8819;SDS011;4446;50.876;4.736;2024-01-15T07:23:28;2.08;;;1.58;;
8819;SDS011;4446;50.876;4.736;2024-01-15T07:25:55;1.52;;;1.42;;
8819;SDS011;4446;50.876;4.736;2024-01-15T07:28:22;1.63;;;1.48;;
8819;SDS011;4446;50.876;4.736;2024-01-15T07:30:49;1.48;;;1.38;;
8819;SDS011;4446;50.876;4.736;2024-01-15T07:33:18;2.55;;;1.52;;
8819;SDS011;4446;50.876;4.736;2024-01-15T07:35:45;2.63;;;1.70;;
8819;SDS011;4446;50.876;4.736;2024-01-15T07:38:13;4.38;;;1.83;;
8819;SDS011;4446;50.876;4.736;2024-01-15T07:40:40;6.70;;;1.67;;
8819;SDS011;4446;50.876;4.736;2024-01-15T07:43:06;1.83;;;1.52;;
8819;SDS011;4446;50.876;4.736;2024-01-15T07:45:33;4.00;;;1.77;;
8819;SDS011;4446;50.876;4.736;2024-01-15T07:48:01;1.83;;;1.42;;
8819;SDS011;4446;50.876;4.736;2024-01-15T07:50:30;3.20;;;1.80;;
8819;SDS011;4446;50.876;4.736;2024-01-15T07:52:57;3.03;;;1.63;;
8819;SDS011;4446;50.876;4.736;2024-01-15T07:55:24;3.40;;;1.52;;
8819;SDS011;4446;50.876;4.736;2024-01-15T07:57:51;3.85;;;1.88;;
8819;SDS011;4446;50.876;4.736;2024-01-15T08:00:23;2.85;;;1.75;;
8819;SDS011;4446;50.876;4.736;2024-01-15T08:02:50;2.63;;;2.17;;
8819;SDS011;4446;50.876;4.736;2024-01-15T08:05:18;3.42;;;1.90;;
8819;SDS011;4446;50.876;4.736;2024-01-15T08:07:47;2.50;;;1.95;;
8819;SDS011;4446;50.876;4.736;2024-01-15T08:10:14;3.60;;;2.17;;
8819;SDS011;4446;50.876;4.736;2024-01-15T08:12:41;2.95;;;1.50;;
8819;SDS011;4446;50.876;4.736;2024-01-15T08:15:08;2.97;;;1.98;;
8819;SDS011;4446;50.876;4.736;2024-01-15T08:17:35;2.47;;;1.92;;
8819;SDS011;4446;50.876;4.736;2024-01-15T08:20:02;6.18;;;2.28;;
8819;SDS011;4446;50.876;4.736;2024-01-15T08:22:30;4.72;;;2.13;;
8819;SDS011;4446;50.876;4.736;2024-01-15T08:24:58;2.95;;;1.85;;
8819;SDS011;4446;50.876;4.736;2024-01-15T08:27:25;2.97;;;2.05;;
8819;SDS011;4446;50.876;4.736;2024-01-15T08:29:53;7.15;;;2.85;;
8819;SDS011;4446;50.876;4.736;2024-01-15T08:32:20;4.60;;;2.33;;
8819;SDS011;4446;50.876;4.736;2024-01-15T08:34:47;6.13;;;2.75;;
8819;SDS011;4446;50.876;4.736;2024-01-15T08:37:17;4.50;;;2.20;;
8819;SDS011;4446;50.876;4.736;2024-01-15T08:39:44;2.85;;;2.25;;
8819;SDS011;4446;50.876;4.736;2024-01-15T08:42:12;5.97;;;2.20;;
8819;SDS011;4446;50.876;4.736;2024-01-15T08:44:39;3.30;;;1.95;;
8819;SDS011;4446;50.876;4.736;2024-01-15T08:47:08;3.33;;;2.72;;
8819;SDS011;4446;50.876;4.736;2024-01-15T08:49:35;4.28;;;2.28;;
8819;SDS011;4446;50.876;4.736;2024-01-15T08:52:03;2.55;;;1.92;;
8819;SDS011;4446;50.876;4.736;2024-01-15T08:54:30;3.60;;;2.03;;
8819;SDS011;4446;50.876;4.736;2024-01-15T08:56:57;3.70;;;2.10;;
8819;SDS011;4446;50.876;4.736;2024-01-15T08:59:26;3.83;;;2.03;;
8819;SDS011;4446;50.876;4.736;2024-01-15T09:01:53;2.78;;;1.65;;
8819;SDS011;4446;50.876;4.736;2024-01-15T09:04:22;2.58;;;1.75;;
8819;SDS011;4446;50.876;4.736;2024-01-15T09:06:49;3.60;;;1.67;;
8819;SDS011;4446;50.876;4.736;2024-01-15T09:09:16;2.63;;;1.65;;
8819;SDS011;4446;50.876;4.736;2024-01-15T09:11:44;4.07;;;1.63;;
8819;SDS011;4446;50.876;4.736;2024-01-15T09:14:11;2.13;;;1.52;;
8819;SDS011;4446;50.876;4.736;2024-01-15T09:16:40;3.60;;;1.58;;
8819;SDS011;4446;50.876;4.736;2024-01-15T09:19:07;7.20;;;1.90;;
8819;SDS011;4446;50.876;4.736;2024-01-15T09:21:34;3.00;;;1.33;;
8819;SDS011;4446;50.876;4.736;2024-01-15T09:24:01;2.05;;;1.30;;
8819;SDS011;4446;50.876;4.736;2024-01-15T09:26:28;3.53;;;1.50;;
8819;SDS011;4446;50.876;4.736;2024-01-15T09:28:55;4.60;;;1.30;;
8819;SDS011;4446;50.876;4.736;2024-01-15T09:31:22;3.97;;;1.70;;
8819;SDS011;4446;50.876;4.736;2024-01-15T09:33:50;2.88;;;1.33;;
8819;SDS011;4446;50.876;4.736;2024-01-15T09:36:21;3.92;;;1.55;;
8819;SDS011;4446;50.876;4.736;2024-01-15T09:38:48;1.90;;;1.08;;
8819;SDS011;4446;50.876;4.736;2024-01-15T09:41:16;2.97;;;1.25;;
8819;SDS011;4446;50.876;4.736;2024-01-15T09:43:43;1.38;;;1.27;;
8819;SDS011;4446;50.876;4.736;2024-01-15T09:46:11;2.75;;;1.20;;
8819;SDS011;4446;50.876;4.736;2024-01-15T09:48:38;3.03;;;1.60;;
8819;SDS011;4446;50.876;4.736;2024-01-15T09:51:07;1.45;;;1.15;;
8819;SDS011;4446;50.876;4.736;2024-01-15T09:53:35;1.92;;;1.27;;
8819;SDS011;4446;50.876;4.736;2024-01-15T09:56:04;6.18;;;1.38;;
8819;SDS011;4446;50.876;4.736;2024-01-15T09:58:31;5.90;;;1.42;;
8819;SDS011;4446;50.876;4.736;2024-01-15T10:00:59;2.55;;;1.05;;
8819;SDS011;4446;50.876;4.736;2024-01-15T10:03:28;2.38;;;1.17;;
8819;SDS011;4446;50.876;4.736;2024-01-15T10:05:56;1.52;;;1.08;;
8819;SDS011;4446;50.876;4.736;2024-01-15T10:08:26;2.63;;;1.40;;
8819;SDS011;4446;50.876;4.736;2024-01-15T10:10:54;2.30;;;1.30;;
8819;SDS011;4446;50.876;4.736;2024-01-15T10:13:21;1.45;;;1.13;;
8819;SDS011;4446;50.876;4.736;2024-01-15T10:15:49;1.67;;;1.23;;
8819;SDS011;4446;50.876;4.736;2024-01-15T10:18:16;2.53;;;1.48;;
8819;SDS011;4446;50.876;4.736;2024-01-15T10:20:43;4.50;;;1.15;;
8819;SDS011;4446;50.876;4.736;2024-01-15T10:23:11;3.17;;;1.30;;
8819;SDS011;4446;50.876;4.736;2024-01-15T10:25:40;1.75;;;1.20;;
8819;SDS011;4446;50.876;4.736;2024-01-15T10:28:08;1.58;;;1.02;;
8819;SDS011;4446;50.876;4.736;2024-01-15T10:30:35;2.15;;;1.15;;
8819;SDS011;4446;50.876;4.736;2024-01-15T10:33:02;3.38;;;1.10;;
8819;SDS011;4446;50.876;4.736;2024-01-15T10:35:30;2.00;;;1.20;;
8819;SDS011;4446;50.876;4.736;2024-01-15T10:37:58;2.25;;;1.13;;
8819;SDS011;4446;50.876;4.736;2024-01-15T10:40:25;1.80;;;1.13;;
8819;SDS011;4446;50.876;4.736;2024-01-15T10:42:54;4.75;;;1.77;;
8819;SDS011;4446;50.876;4.736;2024-01-15T10:45:21;1.17;;;1.08;;
8819;SDS011;4446;50.876;4.736;2024-01-15T10:47:49;3.58;;;1.27;;
8819;SDS011;4446;50.876;4.736;2024-01-15T10:50:16;8.10;;;1.30;;
8819;SDS011;4446;50.876;4.736;2024-01-15T10:52:43;5.38;;;1.55;;
8819;SDS011;4446;50.876;4.736;2024-01-15T10:55:10;1.35;;;1.00;;
8819;SDS011;4446;50.876;4.736;2024-01-15T10:57:38;2.42;;;1.20;;
8819;SDS011;4446;50.876;4.736;2024-01-15T11:00:07;1.73;;;1.50;;
8819;SDS011;4446;50.876;4.736;2024-01-15T11:02:40;6.95;;;1.20;;
8819;SDS011;4446;50.876;4.736;2024-01-15T11:05:08;1.08;;;0.98;;
8819;SDS011;4446;50.876;4.736;2024-01-15T11:07:35;1.67;;;1.40;;
8819;SDS011;4446;50.876;4.736;2024-01-15T11:10:06;1.92;;;1.20;;
8819;SDS011;4446;50.876;4.736;2024-01-15T11:12:35;1.98;;;1.23;;
8819;SDS011;4446;50.876;4.736;2024-01-15T11:15:03;2.90;;;1.02;;
8819;SDS011;4446;50.876;4.736;2024-01-15T11:20:28;3.60;;;1.08;;
8819;SDS011;4446;50.876;4.736;2024-01-15T11:22:56;3.13;;;1.23;;
8819;SDS011;4446;50.876;4.736;2024-01-15T11:25:24;6.50;;;1.30;;
8819;SDS011;4446;50.876;4.736;2024-01-15T11:28:03;2.65;;;1.38;;
8819;SDS011;4446;50.876;4.736;2024-01-15T11:30:31;3.78;;;1.83;;
8819;SDS011;4446;50.876;4.736;2024-01-15T11:33:02;1.52;;;1.20;;
8819;SDS011;4446;50.876;4.736;2024-01-15T11:38:24;4.95;;;1.50;;
8819;SDS011;4446;50.876;4.736;2024-01-15T11:40:53;2.60;;;1.08;;
8819;SDS011;4446;50.876;4.736;2024-01-15T11:43:20;1.10;;;0.98;;
8819;SDS011;4446;50.876;4.736;2024-01-15T11:45:49;3.17;;;1.00;;
8819;SDS011;4446;50.876;4.736;2024-01-15T11:48:20;1.77;;;1.00;;
8819;SDS011;4446;50.876;4.736;2024-01-15T11:50:50;10.20;;;1.50;;
8819;SDS011;4446;50.876;4.736;2024-01-15T11:53:27;1.48;;;0.98;;
8819;SDS011;4446;50.876;4.736;2024-01-15T11:56:01;1.42;;;0.85;;
8819;SDS011;4446;50.876;4.736;2024-01-15T11:58:29;1.17;;;1.08;;
8819;SDS011;4446;50.876;4.736;2024-01-15T12:00:56;2.47;;;1.17;;
8819;SDS011;4446;50.876;4.736;2024-01-15T12:03:25;0.98;;;0.90;;
8819;SDS011;4446;50.876;4.736;2024-01-15T12:05:52;3.15;;;1.10;;
8819;SDS011;4446;50.876;4.736;2024-01-15T12:08:23;5.07;;;1.20;;
8819;SDS011;4446;50.876;4.736;2024-01-15T12:10:51;3.45;;;1.00;;
8819;SDS011;4446;50.876;4.736;2024-01-15T12:13:19;3.88;;;1.40;;
8819;SDS011;4446;50.876;4.736;2024-01-15T12:15:47;2.97;;;1.00;;
8819;SDS011;4446;50.876;4.736;2024-01-15T12:18:15;1.27;;;1.10;;
8819;SDS011;4446;50.876;4.736;2024-01-15T12:20:45;1.35;;;0.90;;
8819;SDS011;4446;50.876;4.736;2024-01-15T12:23:13;1.52;;;1.00;;
8819;SDS011;4446;50.876;4.736;2024-01-15T12:25:40;3.40;;;1.00;;
8819;SDS011;4446;50.876;4.736;2024-01-15T12:28:07;2.53;;;0.90;;
8819;SDS011;4446;50.876;4.736;2024-01-15T12:30:35;2.63;;;0.90;;
8819;SDS011;4446;50.876;4.736;2024-01-15T12:33:03;0.98;;;0.88;;
8819;SDS011;4446;50.876;4.736;2024-01-15T12:35:31;1.92;;;0.98;;
8819;SDS011;4446;50.876;4.736;2024-01-15T12:38:01;1.23;;;0.90;;
8819;SDS011;4446;50.876;4.736;2024-01-15T12:40:31;1.10;;;1.00;;
8819;SDS011;4446;50.876;4.736;2024-01-15T12:42:59;3.22;;;0.95;;
8819;SDS011;4446;50.876;4.736;2024-01-15T12:45:26;4.57;;;1.17;;
8819;SDS011;4446;50.876;4.736;2024-01-15T12:47:54;1.33;;;1.00;;
8819;SDS011;4446;50.876;4.736;2024-01-15T12:50:23;2.00;;;1.02;;
8819;SDS011;4446;50.876;4.736;2024-01-15T12:52:51;2.00;;;1.23;;
8819;SDS011;4446;50.876;4.736;2024-01-15T12:55:20;1.70;;;0.93;;
8819;SDS011;4446;50.876;4.736;2024-01-15T12:57:47;1.58;;;0.90;;
8819;SDS011;4446;50.876;4.736;2024-01-15T13:00:15;1.73;;;1.13;;
8819;SDS011;4446;50.876;4.736;2024-01-15T13:02:42;3.55;;;1.17;;
8819;SDS011;4446;50.876;4.736;2024-01-15T13:05:09;1.08;;;0.93;;
8819;SDS011;4446;50.876;4.736;2024-01-15T13:07:37;1.63;;;1.10;;
8819;SDS011;4446;50.876;4.736;2024-01-15T13:10:04;3.80;;;1.55;;
8819;SDS011;4446;50.876;4.736;2024-01-15T13:12:34;1.38;;;1.13;;
8819;SDS011;4446;50.876;4.736;2024-01-15T13:15:01;3.50;;;1.33;;
8819;SDS011;4446;50.876;4.736;2024-01-15T13:17:30;5.55;;;1.23;;
8819;SDS011;4446;50.876;4.736;2024-01-15T13:19:57;0.88;;;0.80;;
8819;SDS011;4446;50.876;4.736;2024-01-15T13:22:24;0.95;;;0.85;;
8819;SDS011;4446;50.876;4.736;2024-01-15T13:24:55;0.98;;;0.85;;
8819;SDS011;4446;50.876;4.736;2024-01-15T13:27:22;0.68;;;0.68;;
8819;SDS011;4446;50.876;4.736;2024-01-15T13:29:50;1.33;;;0.98;;
8819;SDS011;4446;50.876;4.736;2024-01-15T13:32:19;2.20;;;1.00;;
8819;SDS011;4446;50.876;4.736;2024-01-15T13:34:50;0.70;;;0.70;;
8819;SDS011;4446;50.876;4.736;2024-01-15T13:37:17;0.80;;;0.80;;
8819;SDS011;4446;50.876;4.736;2024-01-15T13:39:44;1.00;;;0.90;;
8819;SDS011;4446;50.876;4.736;2024-01-15T13:42:11;1.08;;;0.70;;
8819;SDS011;4446;50.876;4.736;2024-01-15T13:44:40;0.68;;;0.68;;
8819;SDS011;4446;50.876;4.736;2024-01-15T13:47:08;0.80;;;0.80;;
8819;SDS011;4446;50.876;4.736;2024-01-15T13:49:35;2.47;;;1.02;;
8819;SDS011;4446;50.876;4.736;2024-01-15T13:52:03;0.70;;;0.70;;
8819;SDS011;4446;50.876;4.736;2024-01-15T13:54:30;1.83;;;0.85;;
8819;SDS011;4446;50.876;4.736;2024-01-15T13:56:57;1.17;;;0.93;;
8819;SDS011;4446;50.876;4.736;2024-01-15T13:59:24;1.50;;;1.17;;
8819;SDS011;4446;50.876;4.736;2024-01-15T14:01:51;1.00;;;0.90;;
8819;SDS011;4446;50.876;4.736;2024-01-15T14:04:20;0.93;;;0.88;;
8819;SDS011;4446;50.876;4.736;2024-01-15T14:06:47;2.95;;;0.80;;
8819;SDS011;4446;50.876;4.736;2024-01-15T14:09:14;0.80;;;0.80;;
8819;SDS011;4446;50.876;4.736;2024-01-15T14:11:41;0.80;;;0.80;;
8819;SDS011;4446;50.876;4.736;2024-01-15T14:14:08;0.68;;;0.68;;
8819;SDS011;4446;50.876;4.736;2024-01-15T14:16:35;0.80;;;0.80;;
8819;SDS011;4446;50.876;4.736;2024-01-15T14:19:02;0.70;;;0.70;;
8819;SDS011;4446;50.876;4.736;2024-01-15T14:21:30;3.33;;;0.80;;
8819;SDS011;4446;50.876;4.736;2024-01-15T14:23:57;0.88;;;0.88;;
8819;SDS011;4446;50.876;4.736;2024-01-15T14:26:24;0.73;;;0.60;;
8819;SDS011;4446;50.876;4.736;2024-01-15T14:28:51;1.83;;;0.77;;
8819;SDS011;4446;50.876;4.736;2024-01-15T14:31:18;1.13;;;0.95;;
8819;SDS011;4446;50.876;4.736;2024-01-15T14:33:46;1.00;;;0.80;;
8819;SDS011;4446;50.876;4.736;2024-01-15T14:36:13;0.88;;;0.80;;
8819;SDS011;4446;50.876;4.736;2024-01-15T14:38:42;0.95;;;0.80;;
8819;SDS011;4446;50.876;4.736;2024-01-15T14:41:09;0.80;;;0.80;;
8819;SDS011;4446;50.876;4.736;2024-01-15T14:43:36;0.85;;;0.82;;
8819;SDS011;4446;50.876;4.736;2024-01-15T14:46:03;2.70;;;0.98;;
8819;SDS011;4446;50.876;4.736;2024-01-15T14:48:30;1.10;;;0.95;;
8819;SDS011;4446;50.876;4.736;2024-01-15T14:50:57;0.80;;;0.80;;
8819;SDS011;4446;50.876;4.736;2024-01-15T14:53:25;0.88;;;0.88;;
8819;SDS011;4446;50.876;4.736;2024-01-15T14:55:53;1.05;;;1.00;;
8819;SDS011;4446;50.876;4.736;2024-01-15T14:58:20;1.27;;;1.17;;
8819;SDS011;4446;50.876;4.736;2024-01-15T15:00:46;1.52;;;1.20;;
8819;SDS011;4446;50.876;4.736;2024-01-15T15:03:14;1.27;;;1.15;;
8819;SDS011;4446;50.876;4.736;2024-01-15T15:05:41;1.20;;;1.10;;
8819;SDS011;4446;50.876;4.736;2024-01-15T15:08:08;1.77;;;1.40;;
8819;SDS011;4446;50.876;4.736;2024-01-15T15:10:37;1.58;;;1.15;;
8819;SDS011;4446;50.876;4.736;2024-01-15T15:13:06;1.75;;;1.20;;
8819;SDS011;4446;50.876;4.736;2024-01-15T15:15:35;2.15;;;1.50;;
8819;SDS011;4446;50.876;4.736;2024-01-15T15:18:02;2.65;;;1.50;;
8819;SDS011;4446;50.876;4.736;2024-01-15T15:20:29;4.25;;;1.55;;